createdAt,value
2022-09-20T00:00:18.467Z,24.1
2022-09-20T00:02:20.607Z,25.7
2022-09-20T00:04:22.742Z,20.8
2022-09-20T00:06:24.869Z,16.4
2022-09-20T00:08:30.197Z,23.4
2022-09-20T00:10:32.356Z,12.8
2022-09-20T00:12:34.527Z,12.7
2022-09-20T00:13:37.056Z,13
2022-09-20T00:15:39.118Z,26.9
2022-09-20T00:17:41.263Z,16.9
2022-09-20T00:21:48.588Z,26.7
2022-09-20T00:23:50.747Z,20.4
2022-09-20T00:25:52.873Z,10.9
2022-09-20T00:27:55.008Z,17.9
2022-09-20T00:29:57.041Z,20.7
2022-09-20T00:31:59.211Z,20.2
2022-09-20T00:34:01.344Z,22.5
2022-09-20T00:36:06.622Z,17.7
2022-09-20T00:38:08.739Z,24
2022-09-20T00:40:10.970Z,14.3
2022-09-20T00:46:17.347Z,25.9
2022-09-20T00:48:19.415Z,16.9
2022-09-20T00:50:24.848Z,18.6
2022-09-20T00:52:26.898Z,14.6
2022-09-20T00:54:29.050Z,13.5
2022-09-20T00:58:33.320Z,21.1
2022-09-20T01:08:47.143Z,24.8
2022-09-20T01:09:49.787Z,14.7
2022-09-20T01:11:51.918Z,28.9
2022-09-20T01:13:54.049Z,10.2
2022-09-20T01:15:56.180Z,13.1
2022-09-20T01:18:01.470Z,16.7
2022-09-20T01:20:03.634Z,17.1
2022-09-20T01:22:05.749Z,21.7
2022-09-20T01:24:07.886Z,7.8
2022-09-20T01:26:10.039Z,14.9
2022-09-20T01:28:12.171Z,10.1
2022-09-20T01:30:14.294Z,15.6
2022-09-20T01:32:19.575Z,26
2022-09-20T01:34:21.723Z,29.7
2022-09-20T01:36:23.859Z,22.2
2022-09-20T01:38:25.990Z,24
2022-09-20T01:40:28.197Z,13.6
2022-09-20T01:42:30.231Z,12
2022-09-20T01:48:39.757Z,26
2022-09-20T01:50:41.895Z,15.4
2022-09-20T01:52:44.032Z,14
2022-09-20T01:56:48.312Z,17.6
2022-09-20T01:59:06.972Z,23.7
2022-09-20T02:00:55.799Z,16.8
2022-09-20T02:02:57.861Z,29.4
2022-09-20T02:04:59.999Z,11.6
2022-09-20T02:06:02.648Z,19.5
2022-09-20T02:08:04.780Z,16.2
2022-09-20T02:10:06.932Z,25.1
2022-09-20T02:12:09.052Z,24.5
2022-09-20T02:14:14.340Z,20.9
2022-09-20T02:16:16.572Z,26.7
2022-09-20T02:18:18.611Z,31.4
2022-09-20T02:20:20.732Z,32.2
2022-09-20T02:22:22.871Z,25.1
2022-09-20T02:24:25.018Z,25.7
2022-09-20T02:26:27.153Z,12.8
2022-09-20T02:28:32.458Z,22.9
2022-09-20T02:30:34.578Z,17.9
2022-09-20T02:32:36.733Z,29.3
2022-09-20T02:34:38.880Z,14.9
2022-09-20T02:36:42.547Z,26.9
2022-09-20T02:38:44.623Z,24.3
2022-09-20T02:40:46.778Z,24.3
2022-09-20T02:42:52.076Z,19.1
2022-09-20T02:44:54.219Z,25.7
2022-09-20T02:48:58.495Z,49
2022-09-20T02:51:00.642Z,21.6
2022-09-20T02:53:02.798Z,24.9
2022-09-20T02:55:04.950Z,29.4
2022-09-20T02:57:10.240Z,12.6
2022-09-20T03:01:14.569Z,20.9
2022-09-20T03:03:31.461Z,17.5
2022-09-20T03:05:33.735Z,47.5
2022-09-20T03:07:35.769Z,18.7
2022-09-20T03:09:41.051Z,24.7
2022-09-20T03:11:43.215Z,11.1
2022-09-20T03:15:47.503Z,15.8
2022-09-20T03:17:49.635Z,19.8
2022-09-20T03:23:59.208Z,14.8
2022-09-20T03:26:01.346Z,13
2022-09-20T03:28:03.487Z,29
2022-09-20T03:30:05.625Z,18.2
2022-09-20T03:32:07.840Z,9
2022-09-20T03:34:09.937Z,20.4
2022-09-20T03:36:12.074Z,28.9
2022-09-20T03:38:17.355Z,31.5
2022-09-20T03:40:19.579Z,29.6
2022-09-20T03:42:21.670Z,21
2022-09-20T03:44:23.804Z,31.8
2022-09-20T03:46:25.957Z,21
2022-09-20T03:48:28.092Z,41
2022-09-20T03:50:30.247Z,38.7
2022-09-20T03:52:35.537Z,41.6
2022-09-20T03:54:37.690Z,23.4
2022-09-20T03:56:39.833Z,24.4
2022-09-20T03:57:42.482Z,54.1
2022-09-20T04:03:48.904Z,19.9
2022-09-20T04:09:58.472Z,43.3
2022-09-20T04:12:00.604Z,21.5
2022-09-20T04:14:02.730Z,52.3
2022-09-20T04:16:04.903Z,36.5
2022-09-20T04:18:07.053Z,41.2
2022-09-20T04:24:16.614Z,27.4
2022-09-20T04:28:20.897Z,28.6
2022-09-20T04:32:25.231Z,27.9
2022-09-20T04:34:30.482Z,45.4
2022-09-20T04:36:32.594Z,48.4
2022-09-20T04:38:34.750Z,34.6
2022-09-20T04:40:36.886Z,40.3
2022-09-20T04:42:38.840Z,32.6
2022-09-20T04:44:40.986Z,22.2
2022-09-20T04:46:43.100Z,35.5
2022-09-20T04:48:48.393Z,32.2
2022-09-20T04:50:50.534Z,29.6
2022-09-20T04:52:52.721Z,31.1
2022-09-20T04:53:55.408Z,26.7
2022-09-20T04:55:57.403Z,34.7
2022-09-20T04:57:59.542Z,27.9
2022-09-20T05:00:01.731Z,24.7
2022-09-20T05:02:07.012Z,25.8
2022-09-20T05:04:09.114Z,22.3
2022-09-20T05:06:11.269Z,29.9
2022-09-20T05:08:13.428Z,35
2022-09-20T05:10:15.443Z,24.5
2022-09-20T05:12:17.477Z,20.9
2022-09-20T05:14:19.588Z,19.4
2022-09-20T05:16:24.699Z,32.4
2022-09-20T05:18:26.656Z,12
2022-09-20T05:20:28.685Z,15.7
2022-09-20T05:22:30.821Z,14.1
2022-09-20T05:24:32.872Z,11.1
2022-09-20T05:26:35.034Z,11.3
2022-09-20T05:28:37.173Z,30.4
2022-09-20T05:30:42.268Z,11.5
2022-09-20T05:32:44.321Z,12.8
2022-09-20T05:34:46.335Z,14.1
2022-09-20T05:36:48.387Z,42.6
2022-09-20T05:38:50.437Z,20.6
2022-09-20T05:40:52.476Z,7.8
2022-09-20T05:42:54.522Z,15.2
2022-09-20T05:44:59.636Z,19.7
2022-09-20T05:47:01.672Z,31.2
2022-09-20T05:49:03.729Z,12.8
2022-09-20T05:50:06.261Z,20.4
2022-09-20T05:52:08.295Z,11.7
2022-09-20T05:54:10.339Z,13.8
2022-09-20T05:56:12.540Z,17.5
2022-09-20T05:58:17.509Z,30.9
2022-09-20T06:00:19.529Z,15.3
2022-09-20T06:02:21.669Z,7.7
2022-09-20T06:04:23.652Z,12.1
2022-09-20T06:06:29.092Z,17.2
2022-09-20T06:08:27.751Z,15.8
2022-09-20T06:10:29.777Z,10.5
2022-09-20T06:12:34.849Z,39.2
2022-09-20T06:16:38.977Z,15.1
2022-09-20T06:20:43.036Z,15.9
2022-09-20T06:22:45.097Z,24.4
2022-09-20T06:24:47.134Z,9.6
2022-09-20T06:26:52.217Z,28.6
2022-09-20T06:28:57.714Z,10.7
2022-09-20T06:30:56.447Z,14.2
2022-09-20T06:32:58.448Z,19.2
2022-09-20T06:37:02.551Z,15.4
2022-09-20T06:39:04.569Z,11.4
2022-09-20T06:45:13.768Z,15.1
2022-09-20T06:49:32.477Z,11.6
2022-09-20T06:51:34.501Z,11
2022-09-20T06:53:39.604Z,5.2
2022-09-20T06:59:45.716Z,7.5
2022-09-20T07:01:47.817Z,4.4
2022-09-20T07:03:49.801Z,4.8
2022-09-20T07:05:51.866Z,11.7
2022-09-20T07:14:03.073Z,11.7
2022-09-20T07:16:05.109Z,9.2
2022-09-20T07:18:07.132Z,3.3
2022-09-20T07:22:14.287Z,5.6
2022-09-20T07:26:18.356Z,6.2
2022-09-20T07:28:20.382Z,7.7
2022-09-20T07:30:22.557Z,3.5
2022-09-20T07:32:24.470Z,14.5
2022-09-20T07:34:26.499Z,10
2022-09-20T07:36:31.612Z,1.7
2022-09-20T07:38:33.683Z,6.2
2022-09-20T07:40:35.768Z,7
2022-09-20T07:41:38.260Z,13.7
2022-09-20T07:45:42.537Z,4.4
2022-09-20T07:47:44.358Z,10.3
2022-09-20T07:51:52.482Z,6.5
2022-09-20T07:55:56.565Z,5.3
2022-09-20T07:57:58.588Z,1.8
2022-09-20T08:00:00.637Z,9.3
2022-09-20T08:02:02.684Z,7.5
2022-09-20T08:04:07.777Z,9.3
2022-09-20T08:08:11.865Z,2
2022-09-20T08:10:13.900Z,3.2
2022-09-20T08:14:18.127Z,3.2
2022-09-20T08:16:20.070Z,1
2022-09-20T08:18:25.117Z,1
2022-09-20T08:20:27.138Z,3
2022-09-20T08:22:29.182Z,4.5
2022-09-20T08:24:31.220Z,2.4
2022-09-20T08:26:33.248Z,5.2
2022-09-20T08:28:36.837Z,4
2022-09-20T08:30:38.824Z,0.8
2022-09-20T08:32:43.923Z,9
2022-09-20T08:36:48.009Z,3.5
2022-09-20T08:37:50.892Z,10.6
2022-09-20T08:39:57.599Z,3.7
2022-09-20T08:41:54.624Z,7.6
2022-09-20T08:43:56.719Z,9.4
2022-09-20T08:46:05.417Z,3.5
2022-09-20T08:48:03.795Z,3.4
2022-09-20T08:50:09.853Z,11.3
2022-09-20T08:56:11.927Z,4.5
2022-09-20T08:58:13.956Z,6.3
2022-09-20T09:04:23.131Z,9
2022-09-20T09:06:25.147Z,3.2
2022-09-20T09:10:29.203Z,2.8
2022-09-20T09:12:31.224Z,2.4
2022-09-20T09:14:36.328Z,2.9
2022-09-20T09:16:38.409Z,6
2022-09-20T09:18:40.379Z,0.5
2022-09-20T09:20:42.407Z,6
2022-09-20T09:22:44.424Z,4.2
2022-09-20T09:24:46.487Z,2.6
2022-09-20T09:26:48.516Z,3.4
2022-09-20T09:28:53.613Z,0.8
2022-09-20T09:30:55.652Z,3.8
2022-09-20T09:32:57.658Z,5.6
2022-09-20T09:34:00.213Z,4.8
2022-09-20T09:36:02.238Z,4.6
2022-09-20T09:38:04.255Z,2.5
2022-09-20T09:40:06.414Z,1.9
2022-09-20T09:42:11.420Z,1.2
2022-09-20T09:44:13.419Z,4.5
2022-09-20T09:46:15.470Z,11.2
2022-09-20T09:48:17.457Z,7.5
2022-09-20T09:50:19.512Z,6.8
2022-09-20T09:52:21.532Z,5.7
2022-09-20T09:54:23.537Z,4.3
2022-09-20T09:56:28.652Z,4
2022-09-20T09:58:30.663Z,4.1
2022-09-20T10:00:32.697Z,9.5
2022-09-20T10:04:36.749Z,5.9
2022-09-20T10:06:38.771Z,1.5
2022-09-20T10:08:40.794Z,19.4
2022-09-20T10:10:45.890Z,4.1
2022-09-20T10:12:47.913Z,1.3
2022-09-20T10:14:49.965Z,4.6
2022-09-20T10:16:52.028Z,4.2
2022-09-20T10:18:53.974Z,8
2022-09-20T10:20:55.998Z,3.1
2022-09-20T10:23:29.980Z,5.6
2022-09-20T10:25:03.124Z,2.6
2022-09-20T10:27:05.101Z,6.9
2022-09-20T10:29:07.119Z,8.2
2022-09-20T10:31:29.954Z,9.1
2022-09-20T10:33:31.874Z,1
2022-09-20T10:35:33.880Z,1.5
2022-09-20T10:37:38.970Z,0.8
2022-09-20T10:41:42.984Z,4.8
2022-09-20T10:43:44.989Z,7.4
2022-09-20T10:49:51.115Z,2.3
2022-09-20T10:51:56.079Z,1.6
2022-09-20T10:53:58.073Z,4.3
2022-09-20T10:56:00.088Z,4.4
2022-09-20T10:58:02.059Z,5.1
2022-09-20T11:00:04.219Z,2.2
2022-09-20T11:02:06.136Z,2.8
2022-09-20T11:04:08.080Z,12.1
2022-09-20T11:06:13.121Z,1
2022-09-20T11:08:15.127Z,6.5
2022-09-20T11:10:17.126Z,6.1
2022-09-20T11:12:19.109Z,10.1
2022-09-20T11:14:21.097Z,12.9
2022-09-20T11:16:23.142Z,7.5
2022-09-20T11:18:25.092Z,4.1
2022-09-20T11:20:30.140Z,5.8
2022-09-20T11:22:32.142Z,6.7
2022-09-20T11:24:34.117Z,6.7
2022-09-20T11:25:36.662Z,5.9
2022-09-20T11:29:40.625Z,5.3
2022-09-20T11:31:42.646Z,4.6
2022-09-20T11:33:47.660Z,1.9
2022-09-20T11:35:49.634Z,7
2022-09-20T11:41:55.598Z,5.6
2022-09-20T11:43:57.579Z,2.5
2022-09-20T11:48:04.647Z,7.8
2022-09-20T11:50:06.635Z,2.7
2022-09-20T11:52:08.622Z,2.3
2022-09-20T12:00:16.599Z,4.6
2022-09-20T12:04:32.933Z,1.8
2022-09-20T12:06:25.689Z,6.3
2022-09-20T12:08:27.700Z,10.7
2022-09-20T12:10:29.700Z,17.1
2022-09-20T12:14:33.707Z,2.4
2022-09-20T12:16:38.866Z,1.8
2022-09-20T12:23:47.363Z,7.3
2022-09-20T12:27:51.381Z,1.2
2022-09-20T12:29:56.459Z,2.4
2022-09-20T12:31:58.563Z,7.8
2022-09-20T12:34:00.483Z,2.5
2022-09-20T12:36:02.495Z,5.8
2022-09-20T12:38:04.525Z,9.3
2022-09-20T12:40:06.621Z,3.3
2022-09-20T12:42:08.552Z,9.6
2022-09-20T12:44:13.630Z,7.3
2022-09-20T12:46:15.705Z,5.1
2022-09-20T12:48:17.656Z,5.7
2022-09-20T12:56:25.680Z,4.9
2022-09-20T12:58:30.765Z,3.2
2022-09-20T13:00:32.812Z,7.4
2022-09-20T13:02:34.784Z,8.9
2022-09-20T13:04:36.789Z,4.1
2022-09-20T13:06:38.827Z,15.5
2022-09-20T13:08:40.843Z,1.1
2022-09-20T13:12:50.432Z,3
2022-09-20T13:14:49.978Z,5.1
2022-09-20T13:17:54.522Z,8
2022-09-20T13:19:56.562Z,5
2022-09-20T13:21:58.578Z,1.5
2022-09-20T13:24:00.590Z,6.8
2022-09-20T13:26:05.671Z,2.9
2022-09-20T13:28:07.690Z,11
2022-09-20T13:30:09.701Z,4.8
2022-09-20T13:34:13.747Z,1.1
2022-09-20T13:36:15.775Z,3.3
2022-09-20T13:38:17.801Z,1.7
2022-09-20T13:40:22.928Z,12.7
2022-09-20T13:42:24.896Z,4.9
2022-09-20T13:44:26.930Z,4.1
2022-09-20T13:46:28.948Z,8.6
2022-09-20T13:48:30.954Z,1.1
2022-09-20T13:50:32.953Z,1.2
2022-09-20T13:52:34.979Z,3.2
2022-09-20T13:54:40.093Z,3
2022-09-20T13:56:42.077Z,0.9
2022-09-20T13:58:44.076Z,5.3
2022-09-20T14:00:46.135Z,12.5
2022-09-20T14:02:48.082Z,2.6
2022-09-20T14:04:50.110Z,1.2
2022-09-20T14:06:52.089Z,5.7
2022-09-20T14:08:57.174Z,1.5
2022-09-20T14:10:59.165Z,6.2
2022-09-20T14:13:01.171Z,4
2022-09-20T14:17:26.745Z,3
2022-09-20T14:19:28.677Z,8.5
2022-09-20T14:21:35.261Z,6
2022-09-20T14:23:37.243Z,3.3
2022-09-20T14:25:39.227Z,6.4
2022-09-20T14:27:41.218Z,4.4
2022-09-20T14:29:43.176Z,1.5
2022-09-20T14:31:45.211Z,4.2
2022-09-20T14:33:47.845Z,1.1
2022-09-20T14:35:52.401Z,7.1
2022-09-20T14:37:54.210Z,2.5
2022-09-20T14:39:56.171Z,5.7
2022-09-20T14:41:58.165Z,3.8
2022-09-20T14:44:00.171Z,2.6
2022-09-20T14:48:09.565Z,3.5
2022-09-20T14:50:09.164Z,10
2022-09-20T14:52:11.121Z,2.1
2022-09-20T14:54:13.095Z,1.9
2022-09-20T14:56:15.055Z,6.5
2022-09-20T14:58:17.031Z,1.7
2022-09-20T15:00:19.023Z,14.3
2022-09-20T15:02:21.047Z,3
2022-09-20T15:04:26.054Z,1.7
2022-09-20T15:06:28.034Z,2.3
2022-09-20T15:08:29.998Z,0.7
2022-09-20T15:09:32.547Z,7.7
2022-09-20T15:11:34.505Z,0.6
2022-09-20T15:13:36.508Z,2.2
2022-09-20T15:15:38.496Z,3.8
2022-09-20T15:19:45.544Z,2.3
2022-09-20T15:23:50.032Z,3.5
2022-09-20T15:25:52.014Z,3
2022-09-20T15:27:53.995Z,2.4
2022-09-20T15:29:55.983Z,3.1
2022-09-20T15:32:01.051Z,3.1
2022-09-20T15:34:03.034Z,1.1
2022-09-20T15:36:05.117Z,3.5
2022-09-20T15:38:06.989Z,1.5
2022-09-20T15:40:09.075Z,4.8
2022-09-20T15:42:10.938Z,5.4
2022-09-20T15:44:12.888Z,2.6
2022-09-20T15:46:18.018Z,5.3
2022-09-20T15:48:19.928Z,1
2022-09-20T15:52:23.861Z,2.3
2022-09-20T15:54:25.867Z,3.7
2022-09-20T15:56:27.814Z,0.6
2022-09-20T15:58:34.916Z,1
2022-09-20T16:02:36.861Z,0.3
2022-09-20T16:04:38.796Z,3.6
2022-09-20T16:05:41.335Z,1.4
2022-09-20T16:09:45.261Z,3.9
2022-09-20T16:13:52.286Z,0.6
2022-09-20T16:17:56.225Z,13.9
2022-09-20T16:19:58.223Z,1.3
2022-09-20T16:24:02.174Z,1.1
2022-09-20T16:28:09.209Z,3
2022-09-20T16:30:11.194Z,1.2
2022-09-20T16:36:17.161Z,4.3
2022-09-20T16:38:19.160Z,8.5
2022-09-20T16:40:21.206Z,4.4
2022-09-20T16:42:26.268Z,5.9
2022-09-20T16:44:28.269Z,1.2
2022-09-20T16:46:30.272Z,2.9
2022-09-20T16:48:32.279Z,1
2022-09-20T16:50:34.287Z,5.4
2022-09-20T16:52:36.281Z,2.7
2022-09-20T16:54:38.312Z,6
2022-09-20T16:56:43.394Z,3.6
2022-09-20T16:58:45.429Z,12.5
2022-09-20T17:00:47.476Z,6.9
2022-09-20T17:01:49.986Z,1.7
2022-09-20T17:03:52.009Z,10.2
2022-09-20T17:05:54.036Z,4
2022-09-20T17:07:56.074Z,4
2022-09-20T17:10:01.183Z,7.3
2022-09-20T17:12:03.211Z,7.2
2022-09-20T17:14:05.275Z,5.6
2022-09-20T17:16:07.530Z,2.9
2022-09-20T17:18:13.538Z,2.9
2022-09-20T17:20:11.398Z,8.5
2022-09-20T17:22:13.450Z,1.8
2022-09-20T17:24:18.571Z,11.2
2022-09-20T17:26:20.616Z,10.7
2022-09-20T17:28:22.673Z,7.1
2022-09-20T17:30:24.713Z,5.5
2022-09-20T17:32:26.754Z,1.1
2022-09-20T17:34:28.811Z,2
2022-09-20T17:36:30.848Z,2.7
2022-09-20T17:40:38.055Z,3.2
2022-09-20T17:42:40.107Z,12.9
2022-09-20T17:44:42.137Z,5.3
2022-09-20T17:46:44.242Z,13.5
2022-09-20T17:48:46.270Z,1.3
2022-09-20T17:50:48.324Z,5.7
2022-09-20T17:52:53.447Z,5
2022-09-20T17:56:57.546Z,6.9
2022-09-20T18:01:22.471Z,6.7
2022-09-20T18:05:29.558Z,2.5
2022-09-20T18:09:33.681Z,7.3
2022-09-20T18:11:35.717Z,3.9
2022-09-20T18:13:37.788Z,13.4
2022-09-20T18:15:39.839Z,2.6
2022-09-20T18:17:41.905Z,15.1
2022-09-20T18:21:49.062Z,5.9
2022-09-20T18:23:51.106Z,8.3
2022-09-20T18:25:53.182Z,6.4
2022-09-20T18:27:55.249Z,7.6
2022-09-20T18:29:57.274Z,12.3
2022-09-20T18:31:59.394Z,10.9
2022-09-20T18:34:04.488Z,8
2022-09-20T18:36:06.694Z,13
2022-09-20T18:38:08.587Z,3
2022-09-20T18:40:10.700Z,4.7
2022-09-20T18:42:12.746Z,9.1
2022-09-20T18:44:14.798Z,9.3
2022-09-20T18:46:16.933Z,6.6
2022-09-20T18:48:21.989Z,9.3
2022-09-20T18:50:24.056Z,4
2022-09-20T18:52:26.094Z,11.7
2022-09-20T18:53:28.646Z,11.5
2022-09-20T18:55:30.731Z,8
2022-09-20T18:57:32.768Z,8.8
2022-09-20T18:59:34.847Z,4.5
2022-09-20T19:01:40.067Z,12.4
2022-09-20T19:03:42.019Z,7.9
2022-09-20T19:05:44.079Z,9.8
2022-09-20T19:07:46.137Z,10.3
2022-09-20T19:09:48.175Z,8.8
2022-09-20T19:11:50.252Z,17
2022-09-20T19:13:52.291Z,13.1
2022-09-20T19:15:57.473Z,15.2
2022-09-20T19:17:59.485Z,8.3
2022-09-20T19:20:01.541Z,9
2022-09-20T19:22:03.562Z,4.2
2022-09-20T19:24:05.660Z,13.4
2022-09-20T19:28:09.763Z,15.6
2022-09-20T19:30:14.875Z,9.1
2022-09-20T19:36:21.032Z,11
2022-09-20T19:38:23.108Z,6.1
2022-09-20T19:40:25.178Z,9.3
2022-09-20T19:44:32.311Z,13.8
2022-09-20T19:46:34.447Z,10.8
2022-09-20T19:48:36.411Z,18.6
2022-09-20T19:49:38.982Z,6.5
2022-09-20T19:57:50.327Z,13.8
2022-09-20T19:59:52.382Z,11.7
2022-09-20T20:05:58.552Z,13.6
2022-09-20T20:12:09.263Z,6.3
2022-09-20T20:18:16.738Z,13.7
2022-09-20T20:22:19.597Z,2.9
2022-09-20T20:24:21.645Z,4.2
2022-09-20T20:28:28.775Z,4.8
2022-09-20T20:30:30.810Z,11.6
2022-09-20T20:32:32.852Z,17
2022-09-20T20:34:34.924Z,8.6
2022-09-20T20:36:36.946Z,3.2
2022-09-20T20:38:39.002Z,16.6
2022-09-20T20:40:44.195Z,9.8
2022-09-20T20:42:46.233Z,8.3
2022-09-20T20:44:48.276Z,3
2022-09-20T20:45:50.838Z,11.7
2022-09-20T20:47:52.959Z,4.7
2022-09-20T20:49:55.014Z,6
2022-09-20T20:54:02.164Z,7.2
2022-09-20T20:56:04.220Z,11.7
2022-09-20T20:58:06.344Z,12.7
2022-09-20T21:00:08.397Z,3.4
2022-09-20T21:02:10.471Z,23
2022-09-20T21:04:12.595Z,7.3
2022-09-20T21:06:14.875Z,10.7
2022-09-20T21:08:20.035Z,11.9
2022-09-20T21:10:22.077Z,9.9
2022-09-20T21:12:24.225Z,26.2
2022-09-20T21:16:28.497Z,7.6
2022-09-20T21:18:30.640Z,10.1
2022-09-20T21:20:32.836Z,13.5
2022-09-20T21:22:38.108Z,8.2
2022-09-20T21:24:40.296Z,14.4
2022-09-20T21:26:42.433Z,22.1
2022-09-20T21:28:44.568Z,9.5
2022-09-20T21:30:46.794Z,16.2
2022-09-20T21:32:48.860Z,10.2
2022-09-20T21:34:51.014Z,9.9
2022-09-20T21:38:58.445Z,9.3
2022-09-20T21:41:00.593Z,20.8
2022-09-20T21:43:23.803Z,15.8
2022-09-20T21:47:28.110Z,15.7
2022-09-20T21:49:33.422Z,6
2022-09-20T21:51:35.552Z,22.8
2022-09-20T21:53:37.711Z,13.6
2022-09-20T21:55:39.853Z,6.1
2022-09-20T21:57:42.009Z,19.4
2022-09-20T21:59:44.144Z,18.2
2022-09-20T22:01:46.383Z,8.3
2022-09-20T22:03:51.601Z,10.1
2022-09-20T22:05:53.753Z,8.9
2022-09-20T22:07:55.874Z,7.1
2022-09-20T22:09:58.045Z,17.7
2022-09-20T22:12:00.183Z,13.2
2022-09-20T22:14:02.340Z,18.1
2022-09-20T22:16:04.492Z,11.5
2022-09-20T22:18:09.757Z,12.5
2022-09-20T22:20:11.901Z,9.1
2022-09-20T22:22:14.069Z,10
2022-09-20T22:24:16.184Z,15.8
2022-09-20T22:26:18.344Z,6.3
2022-09-20T22:28:20.524Z,13.1
2022-09-20T22:30:22.607Z,21.2
2022-09-20T22:34:30.095Z,24.2
2022-09-20T22:37:34.877Z,10.7
2022-09-20T22:39:37.017Z,19.1
2022-09-20T22:41:39.157Z,10.7
2022-09-20T22:47:48.825Z,9.7
2022-09-20T22:49:50.956Z,14.3
2022-09-20T22:51:53.107Z,11.4
2022-09-20T22:57:59.533Z,14.3
2022-09-20T23:04:09.434Z,24.8
2022-09-20T23:08:13.398Z,14
2022-09-20T23:12:17.686Z,20.7
2022-09-20T23:14:23.014Z,14.3
2022-09-20T23:16:25.224Z,14.9
2022-09-20T23:18:27.315Z,15.7
2022-09-20T23:20:29.453Z,12.3
2022-09-20T23:22:31.574Z,25
2022-09-20T23:24:33.746Z,22.2
2022-09-20T23:26:35.891Z,10.8
2022-09-20T23:28:41.179Z,15.2
2022-09-20T23:30:43.406Z,22.8
2022-09-20T23:32:45.480Z,11.3
2022-09-20T23:33:48.137Z,15.8
2022-09-20T23:35:50.284Z,27.4
2022-09-20T23:37:52.438Z,9.9
2022-09-20T23:41:59.780Z,14
2022-09-20T23:54:12.627Z,8.6
2022-09-20T23:56:17.923Z,24.5
